sensor_id;sensor_type;location;lat;lon;timestamp;temperature;humidity
14277;DHT22;7222;57.346;12.150;2023-07-13T00:00:08;15.60;99.90
14277;DHT22;7222;57.346;12.150;2023-07-13T00:02:36;15.70;99.90
14277;DHT22;7222;57.346;12.150;2023-07-13T00:05:06;15.60;99.90
14277;DHT22;7222;57.346;12.150;2023-07-13T00:07:34;15.60;99.90
14277;DHT22;7222;57.346;12.150;2023-07-13T00:10:02;15.60;99.90
14277;DHT22;7222;57.346;12.150;2023-07-13T00:12:31;15.60;99.90
14277;DHT22;7222;57.346;12.150;2023-07-13T00:15:02;15.50;99.90
14277;DHT22;7222;57.346;12.150;2023-07-13T00:17:30;15.60;99.90
14277;DHT22;7222;57.346;12.150;2023-07-13T00:19:57;15.60;99.90
14277;DHT22;7222;57.346;12.150;2023-07-13T00:22:26;15.60;99.90
14277;DHT22;7222;57.346;12.150;2023-07-13T00:24:54;15.50;99.90
14277;DHT22;7222;57.346;12.150;2023-07-13T00:27:22;15.50;99.90
14277;DHT22;7222;57.346;12.150;2023-07-13T00:29:49;15.50;99.90
14277;DHT22;7222;57.346;12.150;2023-07-13T00:32:17;15.50;99.90
14277;DHT22;7222;57.346;12.150;2023-07-13T00:34:44;15.60;99.90
14277;DHT22;7222;57.346;12.150;2023-07-13T00:37:11;15.70;99.90
14277;DHT22;7222;57.346;12.150;2023-07-13T00:39:40;15.60;99.90
14277;DHT22;7222;57.346;12.150;2023-07-13T00:42:07;15.60;99.90
14277;DHT22;7222;57.346;12.150;2023-07-13T00:44:34;15.70;99.90
14277;DHT22;7222;57.346;12.150;2023-07-13T00:47:02;15.60;99.90
14277;DHT22;7222;57.346;12.150;2023-07-13T00:49:31;15.70;99.90
14277;DHT22;7222;57.346;12.150;2023-07-13T00:52:01;15.70;99.90
14277;DHT22;7222;57.346;12.150;2023-07-13T00:54:31;15.70;99.90
14277;DHT22;7222;57.346;12.150;2023-07-13T00:57:04;15.60;99.90
14277;DHT22;7222;57.346;12.150;2023-07-13T00:59:35;15.70;99.90
14277;DHT22;7222;57.346;12.150;2023-07-13T01:02:03;15.80;99.90
14277;DHT22;7222;57.346;12.150;2023-07-13T01:04:30;15.80;99.90
14277;DHT22;7222;57.346;12.150;2023-07-13T01:06:58;15.80;99.90
14277;DHT22;7222;57.346;12.150;2023-07-13T01:09:27;15.80;99.90
14277;DHT22;7222;57.346;12.150;2023-07-13T01:11:54;15.90;99.90
14277;DHT22;7222;57.346;12.150;2023-07-13T01:14:23;15.80;99.90
14277;DHT22;7222;57.346;12.150;2023-07-13T01:16:50;15.80;99.90
14277;DHT22;7222;57.346;12.150;2023-07-13T01:19:25;15.70;99.90
14277;DHT22;7222;57.346;12.150;2023-07-13T01:22:04;15.70;99.90
14277;DHT22;7222;57.346;12.150;2023-07-13T01:24:35;15.70;99.90
14277;DHT22;7222;57.346;12.150;2023-07-13T01:27:02;15.70;99.90
14277;DHT22;7222;57.346;12.150;2023-07-13T01:29:30;15.70;99.90
14277;DHT22;7222;57.346;12.150;2023-07-13T01:31:59;15.80;99.90
14277;DHT22;7222;57.346;12.150;2023-07-13T01:34:26;15.80;99.90
14277;DHT22;7222;57.346;12.150;2023-07-13T01:36:54;15.90;99.90
14277;DHT22;7222;57.346;12.150;2023-07-13T01:39:23;15.80;99.90
14277;DHT22;7222;57.346;12.150;2023-07-13T01:41:50;15.80;99.90
14277;DHT22;7222;57.346;12.150;2023-07-13T01:44:19;15.90;99.90
14277;DHT22;7222;57.346;12.150;2023-07-13T01:46:46;15.90;99.90
14277;DHT22;7222;57.346;12.150;2023-07-13T01:49:13;15.90;99.90
14277;DHT22;7222;57.346;12.150;2023-07-13T01:51:40;15.90;99.90
14277;DHT22;7222;57.346;12.150;2023-07-13T01:54:07;15.80;99.90
14277;DHT22;7222;57.346;12.150;2023-07-13T01:56:36;15.80;99.90
14277;DHT22;7222;57.346;12.150;2023-07-13T01:59:04;15.90;99.90
14277;DHT22;7222;57.346;12.150;2023-07-13T02:01:31;15.80;99.90
14277;DHT22;7222;57.346;12.150;2023-07-13T02:03:59;15.80;99.90
14277;DHT22;7222;57.346;12.150;2023-07-13T02:06:27;15.80;99.90
14277;DHT22;7222;57.346;12.150;2023-07-13T02:08:54;15.80;99.90
14277;DHT22;7222;57.346;12.150;2023-07-13T02:11:21;15.80;99.90
14277;DHT22;7222;57.346;12.150;2023-07-13T02:13:51;15.80;99.90
14277;DHT22;7222;57.346;12.150;2023-07-13T02:16:19;15.80;99.90
14277;DHT22;7222;57.346;12.150;2023-07-13T02:18:46;15.80;99.90
14277;DHT22;7222;57.346;12.150;2023-07-13T02:21:13;15.80;99.90
14277;DHT22;7222;57.346;12.150;2023-07-13T02:23:40;15.80;99.90
14277;DHT22;7222;57.346;12.150;2023-07-13T02:28:45;15.70;99.90
14277;DHT22;7222;57.346;12.150;2023-07-13T02:31:15;15.70;99.90
14277;DHT22;7222;57.346;12.150;2023-07-13T02:33:42;15.80;99.90
14277;DHT22;7222;57.346;12.150;2023-07-13T02:36:10;15.70;99.90
14277;DHT22;7222;57.346;12.150;2023-07-13T02:38:37;15.90;99.90
14277;DHT22;7222;57.346;12.150;2023-07-13T02:41:05;15.80;99.90
14277;DHT22;7222;57.346;12.150;2023-07-13T02:43:32;15.80;99.90
14277;DHT22;7222;57.346;12.150;2023-07-13T02:46:01;15.80;99.90
14277;DHT22;7222;57.346;12.150;2023-07-13T02:48:34;15.80;99.90
14277;DHT22;7222;57.346;12.150;2023-07-13T02:51:02;15.70;99.90
14277;DHT22;7222;57.346;12.150;2023-07-13T02:53:29;15.80;99.90
14277;DHT22;7222;57.346;12.150;2023-07-13T02:55:56;15.80;99.90
14277;DHT22;7222;57.346;12.150;2023-07-13T02:58:24;15.80;99.90
14277;DHT22;7222;57.346;12.150;2023-07-13T03:00:51;15.80;99.90
14277;DHT22;7222;57.346;12.150;2023-07-13T03:03:18;15.90;99.90
14277;DHT22;7222;57.346;12.150;2023-07-13T03:05:47;15.80;99.90
14277;DHT22;7222;57.346;12.150;2023-07-13T03:08:16;15.90;99.90
14277;DHT22;7222;57.346;12.150;2023-07-13T03:10:43;15.90;99.90
14277;DHT22;7222;57.346;12.150;2023-07-13T03:13:10;15.90;99.90
14277;DHT22;7222;57.346;12.150;2023-07-13T03:15:38;15.80;99.90
14277;DHT22;7222;57.346;12.150;2023-07-13T03:18:05;15.90;99.90
14277;DHT22;7222;57.346;12.150;2023-07-13T03:20:33;15.90;99.90
14277;DHT22;7222;57.346;12.150;2023-07-13T03:23:16;16.00;99.90
14277;DHT22;7222;57.346;12.150;2023-07-13T03:25:44;16.00;99.90
14277;DHT22;7222;57.346;12.150;2023-07-13T03:28:12;15.90;99.90
14277;DHT22;7222;57.346;12.150;2023-07-13T03:30:39;15.90;99.90
14277;DHT22;7222;57.346;12.150;2023-07-13T03:33:06;15.90;99.90
14277;DHT22;7222;57.346;12.150;2023-07-13T03:35:34;15.90;99.90
14277;DHT22;7222;57.346;12.150;2023-07-13T03:38:02;16.00;99.90
14277;DHT22;7222;57.346;12.150;2023-07-13T03:40:32;16.00;99.90
14277;DHT22;7222;57.346;12.150;2023-07-13T03:42:59;16.00;99.90
14277;DHT22;7222;57.346;12.150;2023-07-13T03:45:28;15.90;99.90
14277;DHT22;7222;57.346;12.150;2023-07-13T03:47:55;16.00;99.90
14277;DHT22;7222;57.346;12.150;2023-07-13T03:50:22;16.00;99.90
14277;DHT22;7222;57.346;12.150;2023-07-13T03:52:50;16.00;99.90
14277;DHT22;7222;57.346;12.150;2023-07-13T03:55:17;16.00;99.90
14277;DHT22;7222;57.346;12.150;2023-07-13T03:57:46;16.00;99.90
14277;DHT22;7222;57.346;12.150;2023-07-13T04:00:14;16.10;99.90
14277;DHT22;7222;57.346;12.150;2023-07-13T04:02:41;16.10;99.90
14277;DHT22;7222;57.346;12.150;2023-07-13T04:05:09;16.20;99.90
14277;DHT22;7222;57.346;12.150;2023-07-13T04:07:36;16.10;99.90
14277;DHT22;7222;57.346;12.150;2023-07-13T04:10:05;16.10;99.90
14277;DHT22;7222;57.346;12.150;2023-07-13T04:12:32;16.00;99.90
14277;DHT22;7222;57.346;12.150;2023-07-13T04:15:00;16.00;99.90
14277;DHT22;7222;57.346;12.150;2023-07-13T04:17:28;16.00;99.90
14277;DHT22;7222;57.346;12.150;2023-07-13T04:19:55;16.00;99.90
14277;DHT22;7222;57.346;12.150;2023-07-13T04:22:22;16.00;99.90
14277;DHT22;7222;57.346;12.150;2023-07-13T04:24:50;16.10;99.90
14277;DHT22;7222;57.346;12.150;2023-07-13T04:27:17;16.10;99.90
14277;DHT22;7222;57.346;12.150;2023-07-13T04:29:44;16.10;99.90
14277;DHT22;7222;57.346;12.150;2023-07-13T04:32:13;16.10;99.90
14277;DHT22;7222;57.346;12.150;2023-07-13T04:34:40;16.10;99.90
14277;DHT22;7222;57.346;12.150;2023-07-13T04:37:08;16.00;99.90
14277;DHT22;7222;57.346;12.150;2023-07-13T04:39:35;16.10;99.90
14277;DHT22;7222;57.346;12.150;2023-07-13T04:42:02;16.10;99.90
14277;DHT22;7222;57.346;12.150;2023-07-13T04:44:29;16.10;99.90
14277;DHT22;7222;57.346;12.150;2023-07-13T04:46:57;16.20;99.90
14277;DHT22;7222;57.346;12.150;2023-07-13T04:49:25;16.20;99.90
14277;DHT22;7222;57.346;12.150;2023-07-13T04:51:52;16.30;99.90
14277;DHT22;7222;57.346;12.150;2023-07-13T04:54:20;16.20;99.90
14277;DHT22;7222;57.346;12.150;2023-07-13T04:56:48;16.20;99.90
14277;DHT22;7222;57.346;12.150;2023-07-13T04:59:15;16.30;99.90
14277;DHT22;7222;57.346;12.150;2023-07-13T05:01:42;16.30;99.90
14277;DHT22;7222;57.346;12.150;2023-07-13T05:04:10;16.30;99.90
14277;DHT22;7222;57.346;12.150;2023-07-13T05:06:39;16.40;99.90
14277;DHT22;7222;57.346;12.150;2023-07-13T05:09:06;16.40;99.90
14277;DHT22;7222;57.346;12.150;2023-07-13T05:11:34;16.50;99.90
14277;DHT22;7222;57.346;12.150;2023-07-13T05:14:01;16.50;99.90
14277;DHT22;7222;57.346;12.150;2023-07-13T05:16:28;16.40;99.90
14277;DHT22;7222;57.346;12.150;2023-07-13T05:18:55;16.50;99.90
14277;DHT22;7222;57.346;12.150;2023-07-13T05:21:22;16.40;99.90
14277;DHT22;7222;57.346;12.150;2023-07-13T05:23:51;16.40;99.90
14277;DHT22;7222;57.346;12.150;2023-07-13T05:26:18;16.40;99.90
14277;DHT22;7222;57.346;12.150;2023-07-13T05:28:46;16.40;99.90
14277;DHT22;7222;57.346;12.150;2023-07-13T05:31:14;16.40;99.90
14277;DHT22;7222;57.346;12.150;2023-07-13T05:33:41;16.50;99.90
14277;DHT22;7222;57.346;12.150;2023-07-13T05:36:08;16.50;99.90
14277;DHT22;7222;57.346;12.150;2023-07-13T05:38:35;16.50;99.90
14277;DHT22;7222;57.346;12.150;2023-07-13T05:41:04;16.50;99.90
14277;DHT22;7222;57.346;12.150;2023-07-13T05:43:31;16.60;99.90
14277;DHT22;7222;57.346;12.150;2023-07-13T05:45:59;16.60;99.90
14277;DHT22;7222;57.346;12.150;2023-07-13T05:48:26;16.60;99.90
14277;DHT22;7222;57.346;12.150;2023-07-13T05:50:53;16.60;99.90
14277;DHT22;7222;57.346;12.150;2023-07-13T05:53:20;16.60;99.90
14277;DHT22;7222;57.346;12.150;2023-07-13T05:55:48;16.60;99.90
14277;DHT22;7222;57.346;12.150;2023-07-13T05:58:18;16.70;99.90
14277;DHT22;7222;57.346;12.150;2023-07-13T06:00:46;16.60;99.90
14277;DHT22;7222;57.346;12.150;2023-07-13T06:03:13;16.60;99.90
14277;DHT22;7222;57.346;12.150;2023-07-13T06:05:41;16.60;99.90
14277;DHT22;7222;57.346;12.150;2023-07-13T06:08:08;16.70;99.90
14277;DHT22;7222;57.346;12.150;2023-07-13T06:10:36;16.60;99.90
14277;DHT22;7222;57.346;12.150;2023-07-13T06:13:04;16.60;99.90
14277;DHT22;7222;57.346;12.150;2023-07-13T06:15:32;16.60;99.90
14277;DHT22;7222;57.346;12.150;2023-07-13T06:17:59;16.70;99.90
14277;DHT22;7222;57.346;12.150;2023-07-13T06:20:26;16.70;99.90
14277;DHT22;7222;57.346;12.150;2023-07-13T06:22:54;16.70;99.90
14277;DHT22;7222;57.346;12.150;2023-07-13T06:25:22;16.80;99.90
14277;DHT22;7222;57.346;12.150;2023-07-13T06:27:49;16.80;99.90
14277;DHT22;7222;57.346;12.150;2023-07-13T06:30:16;16.80;99.90
14277;DHT22;7222;57.346;12.150;2023-07-13T06:32:45;16.80;99.90
14277;DHT22;7222;57.346;12.150;2023-07-13T06:35:12;16.90;99.90
14277;DHT22;7222;57.346;12.150;2023-07-13T06:37:40;16.90;99.90
14277;DHT22;7222;57.346;12.150;2023-07-13T06:40:09;16.90;99.90
14277;DHT22;7222;57.346;12.150;2023-07-13T06:42:36;16.90;99.90
14277;DHT22;7222;57.346;12.150;2023-07-13T06:45:05;16.90;99.90
14277;DHT22;7222;57.346;12.150;2023-07-13T06:47:32;16.80;99.90
14277;DHT22;7222;57.346;12.150;2023-07-13T06:50:01;16.80;99.90
14277;DHT22;7222;57.346;12.150;2023-07-13T06:52:29;16.80;99.90
14277;DHT22;7222;57.346;12.150;2023-07-13T06:54:56;16.80;99.90
14277;DHT22;7222;57.346;12.150;2023-07-13T06:57:23;16.80;99.90
14277;DHT22;7222;57.346;12.150;2023-07-13T06:59:51;17.00;99.90
14277;DHT22;7222;57.346;12.150;2023-07-13T07:02:18;17.00;99.90
14277;DHT22;7222;57.346;12.150;2023-07-13T07:04:46;17.00;99.90
14277;DHT22;7222;57.346;12.150;2023-07-13T07:07:14;17.10;99.90
14277;DHT22;7222;57.346;12.150;2023-07-13T07:09:42;17.00;99.90
14277;DHT22;7222;57.346;12.150;2023-07-13T07:12:10;17.20;99.90
14277;DHT22;7222;57.346;12.150;2023-07-13T07:14:37;17.30;99.90
14277;DHT22;7222;57.346;12.150;2023-07-13T07:17:04;17.20;99.90
14277;DHT22;7222;57.346;12.150;2023-07-13T07:19:32;17.30;99.90
14277;DHT22;7222;57.346;12.150;2023-07-13T07:22:00;17.20;99.90
14277;DHT22;7222;57.346;12.150;2023-07-13T07:24:29;17.30;99.90
14277;DHT22;7222;57.346;12.150;2023-07-13T07:26:56;17.30;99.90
14277;DHT22;7222;57.346;12.150;2023-07-13T07:29:23;17.40;99.90
14277;DHT22;7222;57.346;12.150;2023-07-13T07:31:52;17.50;99.90
14277;DHT22;7222;57.346;12.150;2023-07-13T07:34:19;17.50;99.90
14277;DHT22;7222;57.346;12.150;2023-07-13T07:36:47;17.60;99.90
14277;DHT22;7222;57.346;12.150;2023-07-13T07:39:14;17.50;99.90
14277;DHT22;7222;57.346;12.150;2023-07-13T07:41:44;17.40;99.90
14277;DHT22;7222;57.346;12.150;2023-07-13T07:44:11;17.60;99.90
14277;DHT22;7222;57.346;12.150;2023-07-13T07:46:39;17.70;99.90
14277;DHT22;7222;57.346;12.150;2023-07-13T07:49:07;17.60;99.90
14277;DHT22;7222;57.346;12.150;2023-07-13T07:51:34;17.90;99.90
14277;DHT22;7222;57.346;12.150;2023-07-13T07:54:02;18.00;99.90
14277;DHT22;7222;57.346;12.150;2023-07-13T07:56:29;18.10;99.90
14277;DHT22;7222;57.346;12.150;2023-07-13T07:58:58;17.90;99.90
14277;DHT22;7222;57.346;12.150;2023-07-13T08:01:28;17.80;99.90
14277;DHT22;7222;57.346;12.150;2023-07-13T08:03:55;17.90;99.90
14277;DHT22;7222;57.346;12.150;2023-07-13T08:06:23;18.30;99.90
14277;DHT22;7222;57.346;12.150;2023-07-13T08:08:50;18.60;99.90
14277;DHT22;7222;57.346;12.150;2023-07-13T08:11:17;18.40;99.90
14277;DHT22;7222;57.346;12.150;2023-07-13T08:13:45;18.80;99.90
14277;DHT22;7222;57.346;12.150;2023-07-13T08:16:13;18.90;99.90
14277;DHT22;7222;57.346;12.150;2023-07-13T08:18:41;18.60;99.90
14277;DHT22;7222;57.346;12.150;2023-07-13T08:21:09;18.60;99.90
14277;DHT22;7222;57.346;12.150;2023-07-13T08:23:36;18.40;99.90
14277;DHT22;7222;57.346;12.150;2023-07-13T08:26:04;18.40;99.90
14277;DHT22;7222;57.346;12.150;2023-07-13T08:28:32;18.50;99.90
14277;DHT22;7222;57.346;12.150;2023-07-13T08:31:01;18.50;99.90
14277;DHT22;7222;57.346;12.150;2023-07-13T08:33:30;18.70;99.90
14277;DHT22;7222;57.346;12.150;2023-07-13T08:35:58;18.80;99.90
14277;DHT22;7222;57.346;12.150;2023-07-13T08:38:25;18.90;99.90
14277;DHT22;7222;57.346;12.150;2023-07-13T08:40:54;18.90;99.90
14277;DHT22;7222;57.346;12.150;2023-07-13T08:43:26;18.90;99.90
14277;DHT22;7222;57.346;12.150;2023-07-13T08:45:59;19.20;99.90
14277;DHT22;7222;57.346;12.150;2023-07-13T08:48:35;19.40;99.90
14277;DHT22;7222;57.346;12.150;2023-07-13T08:51:11;19.50;99.90
14277;DHT22;7222;57.346;12.150;2023-07-13T08:53:46;19.30;99.90
14277;DHT22;7222;57.346;12.150;2023-07-13T08:56:18;19.20;99.90
14277;DHT22;7222;57.346;12.150;2023-07-13T08:58:51;19.00;99.90
14277;DHT22;7222;57.346;12.150;2023-07-13T09:01:23;19.10;99.90
14277;DHT22;7222;57.346;12.150;2023-07-13T09:03:59;19.10;99.90
14277;DHT22;7222;57.346;12.150;2023-07-13T09:06:39;19.20;99.90
14277;DHT22;7222;57.346;12.150;2023-07-13T09:09:20;19.20;99.90
14277;DHT22;7222;57.346;12.150;2023-07-13T09:11:55;19.40;99.90
14277;DHT22;7222;57.346;12.150;2023-07-13T09:14:34;19.40;99.90
14277;DHT22;7222;57.346;12.150;2023-07-13T09:17:05;19.40;99.90
14277;DHT22;7222;57.346;12.150;2023-07-13T09:19:38;19.70;99.90
14277;DHT22;7222;57.346;12.150;2023-07-13T09:22:12;19.20;99.90
14277;DHT22;7222;57.346;12.150;2023-07-13T09:24:54;19.60;99.90
14277;DHT22;7222;57.346;12.150;2023-07-13T09:27:24;19.20;99.90
14277;DHT22;7222;57.346;12.150;2023-07-13T09:29:58;18.80;99.90
14277;DHT22;7222;57.346;12.150;2023-07-13T09:32:29;19.50;99.90
14277;DHT22;7222;57.346;12.150;2023-07-13T09:34:58;19.60;99.90
14277;DHT22;7222;57.346;12.150;2023-07-13T09:37:30;19.40;99.90
14277;DHT22;7222;57.346;12.150;2023-07-13T09:39:59;19.20;99.90
14277;DHT22;7222;57.346;12.150;2023-07-13T09:42:31;19.80;99.90
14277;DHT22;7222;57.346;12.150;2023-07-13T09:45:00;19.70;99.90
14277;DHT22;7222;57.346;12.150;2023-07-13T09:47:31;19.40;99.90
14277;DHT22;7222;57.346;12.150;2023-07-13T09:50:02;19.40;99.90
14277;DHT22;7222;57.346;12.150;2023-07-13T09:52:40;19.70;99.90
14277;DHT22;7222;57.346;12.150;2023-07-13T09:55:24;20.00;99.90
14277;DHT22;7222;57.346;12.150;2023-07-13T09:57:52;20.00;99.90
14277;DHT22;7222;57.346;12.150;2023-07-13T10:00:22;19.90;99.90
14277;DHT22;7222;57.346;12.150;2023-07-13T10:02:59;19.80;99.90
14277;DHT22;7222;57.346;12.150;2023-07-13T10:05:27;20.10;99.90
14277;DHT22;7222;57.346;12.150;2023-07-13T10:07:56;20.70;99.90
14277;DHT22;7222;57.346;12.150;2023-07-13T10:10:23;20.10;99.90
14277;DHT22;7222;57.346;12.150;2023-07-13T10:12:51;20.20;99.90
14277;DHT22;7222;57.346;12.150;2023-07-13T10:15:19;20.00;99.90
14277;DHT22;7222;57.346;12.150;2023-07-13T10:17:47;20.10;99.90
14277;DHT22;7222;57.346;12.150;2023-07-13T10:20:16;20.60;99.90
14277;DHT22;7222;57.346;12.150;2023-07-13T10:22:52;20.80;99.90
14277;DHT22;7222;57.346;12.150;2023-07-13T10:25:22;21.30;99.90
14277;DHT22;7222;57.346;12.150;2023-07-13T10:27:53;21.20;99.90
14277;DHT22;7222;57.346;12.150;2023-07-13T10:30:23;20.50;99.90
14277;DHT22;7222;57.346;12.150;2023-07-13T10:32:53;20.90;99.90
14277;DHT22;7222;57.346;12.150;2023-07-13T10:35:22;20.60;99.90
14277;DHT22;7222;57.346;12.150;2023-07-13T10:37:53;20.80;99.90
14277;DHT22;7222;57.346;12.150;2023-07-13T10:40:27;20.60;99.90
14277;DHT22;7222;57.346;12.150;2023-07-13T10:42:57;21.60;99.90
14277;DHT22;7222;57.346;12.150;2023-07-13T10:45:29;21.20;99.90
14277;DHT22;7222;57.346;12.150;2023-07-13T10:47:57;21.00;99.90
14277;DHT22;7222;57.346;12.150;2023-07-13T10:50:27;21.40;99.90
14277;DHT22;7222;57.346;12.150;2023-07-13T10:53:02;22.10;99.90
14277;DHT22;7222;57.346;12.150;2023-07-13T10:55:31;21.80;99.90
14277;DHT22;7222;57.346;12.150;2023-07-13T10:58:00;22.10;1.00
14277;DHT22;7222;57.346;12.150;2023-07-13T11:00:31;22.10;1.00
14277;DHT22;7222;57.346;12.150;2023-07-13T11:03:00;22.30;99.90
14277;DHT22;7222;57.346;12.150;2023-07-13T11:05:30;21.50;99.90
14277;DHT22;7222;57.346;12.150;2023-07-13T11:08:14;21.60;99.90
14277;DHT22;7222;57.346;12.150;2023-07-13T11:10:48;21.80;1.00
14277;DHT22;7222;57.346;12.150;2023-07-13T11:13:36;21.50;99.90
14277;DHT22;7222;57.346;12.150;2023-07-13T11:16:12;21.40;99.90
14277;DHT22;7222;57.346;12.150;2023-07-13T11:18:40;21.60;99.90
14277;DHT22;7222;57.346;12.150;2023-07-13T11:21:18;21.70;1.00
14277;DHT22;7222;57.346;12.150;2023-07-13T11:23:52;21.70;99.90
14277;DHT22;7222;57.346;12.150;2023-07-13T11:26:39;21.40;99.90
14277;DHT22;7222;57.346;12.150;2023-07-13T11:29:09;20.80;1.00
14277;DHT22;7222;57.346;12.150;2023-07-13T11:31:37;21.00;99.90
14277;DHT22;7222;57.346;12.150;2023-07-13T11:34:10;20.90;1.00
14277;DHT22;7222;57.346;12.150;2023-07-13T11:36:43;21.50;1.00
14277;DHT22;7222;57.346;12.150;2023-07-13T11:39:18;21.30;1.00
14277;DHT22;7222;57.346;12.150;2023-07-13T11:41:51;22.20;1.00
14277;DHT22;7222;57.346;12.150;2023-07-13T11:44:22;21.60;1.00
14277;DHT22;7222;57.346;12.150;2023-07-13T11:46:52;21.40;99.90
14277;DHT22;7222;57.346;12.150;2023-07-13T11:49:22;21.30;1.00
14277;DHT22;7222;57.346;12.150;2023-07-13T11:51:51;20.90;99.90
14277;DHT22;7222;57.346;12.150;2023-07-13T11:54:29;21.70;99.90
14277;DHT22;7222;57.346;12.150;2023-07-13T11:56:59;22.20;99.90
14277;DHT22;7222;57.346;12.150;2023-07-13T11:59:29;21.90;1.00
14277;DHT22;7222;57.346;12.150;2023-07-13T12:01:58;21.10;1.00
14277;DHT22;7222;57.346;12.150;2023-07-13T12:04:28;21.50;99.90
14277;DHT22;7222;57.346;12.150;2023-07-13T12:06:57;23.00;99.90
14277;DHT22;7222;57.346;12.150;2023-07-13T12:09:28;22.30;99.90
14277;DHT22;7222;57.346;12.150;2023-07-13T12:11:57;21.60;99.90
14277;DHT22;7222;57.346;12.150;2023-07-13T12:14:27;21.40;99.90
14277;DHT22;7222;57.346;12.150;2023-07-13T12:16:55;21.30;69.50
14277;DHT22;7222;57.346;12.150;2023-07-13T12:19:26;21.10;1.00
14277;DHT22;7222;57.346;12.150;2023-07-13T12:21:56;21.30;99.90
14277;DHT22;7222;57.346;12.150;2023-07-13T12:24:24;21.60;99.90
14277;DHT22;7222;57.346;12.150;2023-07-13T12:26:58;21.60;1.00
14277;DHT22;7222;57.346;12.150;2023-07-13T12:29:26;22.10;99.90
14277;DHT22;7222;57.346;12.150;2023-07-13T12:31:54;22.90;1.00
14277;DHT22;7222;57.346;12.150;2023-07-13T12:34:22;22.60;99.90
14277;DHT22;7222;57.346;12.150;2023-07-13T12:36:51;23.30;41.70
14277;DHT22;7222;57.346;12.150;2023-07-13T12:39:22;22.50;1.00
14277;DHT22;7222;57.346;12.150;2023-07-13T12:41:51;21.60;1.00
14277;DHT22;7222;57.346;12.150;2023-07-13T12:44:27;21.40;1.00
14277;DHT22;7222;57.346;12.150;2023-07-13T12:47:08;22.40;99.90
14277;DHT22;7222;57.346;12.150;2023-07-13T12:49:41;23.60;49.30
14277;DHT22;7222;57.346;12.150;2023-07-13T12:52:14;24.60;4.00
14277;DHT22;7222;57.346;12.150;2023-07-13T12:54:41;23.40;99.90
14277;DHT22;7222;57.346;12.150;2023-07-13T12:57:15;22.90;1.00
14277;DHT22;7222;57.346;12.150;2023-07-13T12:59:45;22.10;99.90
14277;DHT22;7222;57.346;12.150;2023-07-13T13:02:26;21.50;99.90
14277;DHT22;7222;57.346;12.150;2023-07-13T13:04:55;21.80;99.90
14277;DHT22;7222;57.346;12.150;2023-07-13T13:07:24;22.80;99.90
14277;DHT22;7222;57.346;12.150;2023-07-13T13:09:51;23.40;99.90
14277;DHT22;7222;57.346;12.150;2023-07-13T13:12:19;22.80;99.90
14277;DHT22;7222;57.346;12.150;2023-07-13T13:14:48;22.80;99.90
14277;DHT22;7222;57.346;12.150;2023-07-13T13:17:19;24.00;1.00
14277;DHT22;7222;57.346;12.150;2023-07-13T13:19:47;22.20;99.90
14277;DHT22;7222;57.346;12.150;2023-07-13T13:22:15;22.10;1.00
14277;DHT22;7222;57.346;12.150;2023-07-13T13:24:41;22.00;99.90
14277;DHT22;7222;57.346;12.150;2023-07-13T13:27:15;22.50;1.90
14277;DHT22;7222;57.346;12.150;2023-07-13T13:29:43;21.60;99.90
14277;DHT22;7222;57.346;12.150;2023-07-13T13:32:13;21.40;1.00
14277;DHT22;7222;57.346;12.150;2023-07-13T13:34:41;21.40;1.00
14277;DHT22;7222;57.346;12.150;2023-07-13T13:37:17;22.00;1.00
14277;DHT22;7222;57.346;12.150;2023-07-13T13:39:45;21.50;99.90
14277;DHT22;7222;57.346;12.150;2023-07-13T13:42:13;20.80;1.00
14277;DHT22;7222;57.346;12.150;2023-07-13T13:44:40;21.70;1.00
14277;DHT22;7222;57.346;12.150;2023-07-13T13:47:21;21.80;1.00
14277;DHT22;7222;57.346;12.150;2023-07-13T13:49:52;22.30;43.10
14277;DHT22;7222;57.346;12.150;2023-07-13T13:52:19;21.60;1.00
14277;DHT22;7222;57.346;12.150;2023-07-13T13:54:46;22.80;1.00
14277;DHT22;7222;57.346;12.150;2023-07-13T13:57:14;22.90;1.00
14277;DHT22;7222;57.346;12.150;2023-07-13T13:59:41;22.70;1.00
14277;DHT22;7222;57.346;12.150;2023-07-13T14:02:23;22.10;1.00
14277;DHT22;7222;57.346;12.150;2023-07-13T14:04:55;22.70;1.00
14277;DHT22;7222;57.346;12.150;2023-07-13T14:07:23;22.70;1.00
14277;DHT22;7222;57.346;12.150;2023-07-13T14:09:52;22.70;99.90
14277;DHT22;7222;57.346;12.150;2023-07-13T14:12:19;22.50;99.90
14277;DHT22;7222;57.346;12.150;2023-07-13T14:14:46;23.10;99.90
14277;DHT22;7222;57.346;12.150;2023-07-13T14:17:20;21.90;1.00
14277;DHT22;7222;57.346;12.150;2023-07-13T14:19:50;22.30;99.90
14277;DHT22;7222;57.346;12.150;2023-07-13T14:22:23;22.70;99.90
14277;DHT22;7222;57.346;12.150;2023-07-13T14:24:52;22.20;1.00
14277;DHT22;7222;57.346;12.150;2023-07-13T14:27:19;22.80;99.90
14277;DHT22;7222;57.346;12.150;2023-07-13T14:29:46;24.40;1.00
14277;DHT22;7222;57.346;12.150;2023-07-13T14:32:13;22.50;1.00
14277;DHT22;7222;57.346;12.150;2023-07-13T14:34:40;22.40;99.90
14277;DHT22;7222;57.346;12.150;2023-07-13T14:37:13;22.20;99.90
14277;DHT22;7222;57.346;12.150;2023-07-13T14:39:43;22.50;99.90
14277;DHT22;7222;57.346;12.150;2023-07-13T14:42:10;22.80;99.90
14277;DHT22;7222;57.346;12.150;2023-07-13T14:44:38;21.80;99.90
14277;DHT22;7222;57.346;12.150;2023-07-13T14:47:06;22.00;1.00
14277;DHT22;7222;57.346;12.150;2023-07-13T14:49:36;21.90;99.90
14277;DHT22;7222;57.346;12.150;2023-07-13T14:52:13;22.50;99.90
14277;DHT22;7222;57.346;12.150;2023-07-13T14:54:41;21.80;69.80
14277;DHT22;7222;57.346;12.150;2023-07-13T14:57:10;21.70;1.00
14277;DHT22;7222;57.346;12.150;2023-07-13T14:59:38;21.30;99.90
14277;DHT22;7222;57.346;12.150;2023-07-13T15:02:15;21.90;99.90
14277;DHT22;7222;57.346;12.150;2023-07-13T15:04:42;21.40;99.90
14277;DHT22;7222;57.346;12.150;2023-07-13T15:07:11;21.00;1.00
14277;DHT22;7222;57.346;12.150;2023-07-13T15:09:39;21.60;1.00
14277;DHT22;7222;57.346;12.150;2023-07-13T15:12:06;21.40;1.00
14277;DHT22;7222;57.346;12.150;2023-07-13T15:14:34;22.00;99.90
14277;DHT22;7222;57.346;12.150;2023-07-13T15:17:01;20.90;99.90
14277;DHT22;7222;57.346;12.150;2023-07-13T15:19:28;21.50;1.00
14277;DHT22;7222;57.346;12.150;2023-07-13T15:21:56;21.10;99.90
14277;DHT22;7222;57.346;12.150;2023-07-13T15:24:26;21.70;99.90
14277;DHT22;7222;57.346;12.150;2023-07-13T15:26:53;21.50;1.00
14277;DHT22;7222;57.346;12.150;2023-07-13T15:29:21;21.50;78.80
14277;DHT22;7222;57.346;12.150;2023-07-13T15:31:48;21.60;99.90
14277;DHT22;7222;57.346;12.150;2023-07-13T15:34:19;21.30;23.80
14277;DHT22;7222;57.346;12.150;2023-07-13T15:36:47;20.90;69.90
14277;DHT22;7222;57.346;12.150;2023-07-13T15:39:15;21.40;1.00
14277;DHT22;7222;57.346;12.150;2023-07-13T15:41:45;20.80;1.00
14277;DHT22;7222;57.346;12.150;2023-07-13T15:44:25;21.10;1.00
14277;DHT22;7222;57.346;12.150;2023-07-13T15:46:54;21.10;1.00